createdAt,value
2022-11-30T00:01:13.561Z,101040.94
2022-11-30T00:03:40.026Z,101045.91
2022-11-30T00:06:07.848Z,101038.31
2022-11-30T00:08:35.307Z,101047.44
2022-11-30T00:11:17.934Z,101040.47
2022-11-30T00:13:45.260Z,101034.53
2022-11-30T00:16:11.700Z,101043.16
2022-11-30T00:18:38.250Z,101033.47
2022-11-30T00:21:08.563Z,101039.53
2022-11-30T00:23:37.785Z,101040.94
2022-11-30T00:26:09.399Z,101037.47
2022-11-30T00:28:36.257Z,101041.91
2022-11-30T00:31:05.552Z,101042.28
2022-11-30T00:33:36.581Z,101050.78
2022-11-30T00:36:05.488Z,101040.69
2022-11-30T00:38:32.244Z,101045.00
2022-11-30T00:40:59.225Z,101048.34
2022-11-30T00:43:25.714Z,101045.88
2022-11-30T00:45:52.227Z,101055.88
2022-11-30T00:48:18.762Z,101051.81
2022-11-30T00:50:45.372Z,101055.97
2022-11-30T00:53:11.893Z,101055.88
2022-11-30T00:55:38.468Z,101056.75
2022-11-30T00:58:07.044Z,101059.88
2022-11-30T01:00:33.930Z,101059.78
2022-11-30T01:03:00.514Z,101050.06
2022-11-30T01:05:26.944Z,101057.25
2022-11-30T01:07:53.485Z,101058.13
2022-11-30T01:10:20.082Z,101061.91
2022-11-30T01:12:46.535Z,101068.06
2022-11-30T01:15:12.954Z,101066.25
2022-11-30T01:17:39.511Z,101066.25
2022-11-30T01:20:07.919Z,101062.84
2022-11-30T01:22:35.747Z,101067.81
2022-11-30T01:25:02.677Z,101067.94
2022-11-30T01:27:29.123Z,101069.03
2022-11-30T01:29:55.622Z,101067.81
2022-11-30T01:32:22.304Z,101071.47
2022-11-30T01:34:49.080Z,101071.00
2022-11-30T01:37:15.861Z,101074.25
2022-11-30T01:39:42.384Z,101071.41
2022-11-30T01:42:15.065Z,101068.31
2022-11-30T01:44:52.203Z,101065.75
2022-11-30T01:47:25.049Z,101064.41
2022-11-30T01:49:55.262Z,101073.41
2022-11-30T01:52:51.004Z,101075.00
2022-11-30T01:55:23.976Z,101077.28
2022-11-30T01:58:02.343Z,101073.28
2022-11-30T02:00:29.021Z,101068.16
2022-11-30T02:03:00.831Z,101070.72
2022-11-30T02:05:27.971Z,101077.69
2022-11-30T02:07:55.045Z,101076.75
2022-11-30T02:10:26.001Z,101074.81
2022-11-30T02:13:23.399Z,101079.25
2022-11-30T02:15:55.462Z,101074.09
2022-11-30T02:18:27.430Z,101071.56
2022-11-30T02:21:07.094Z,101071.31
2022-11-30T02:24:01.392Z,101072.56
2022-11-30T02:27:05.396Z,101076.09
2022-11-30T02:29:37.958Z,101073.22
2022-11-30T02:32:15.845Z,101075.78
2022-11-30T02:34:43.644Z,101075.91
2022-11-30T02:37:12.520Z,101078.34
2022-11-30T02:39:38.953Z,101083.63
2022-11-30T02:42:11.829Z,101084.44
2022-11-30T02:44:38.493Z,101085.31
2022-11-30T02:47:26.461Z,101090.53
2022-11-30T02:50:06.296Z,101082.34
2022-11-30T02:52:34.032Z,101093.72
2022-11-30T02:55:06.514Z,101088.56
2022-11-30T02:57:33.912Z,101081.31
2022-11-30T03:00:02.552Z,101089.59
2022-11-30T03:02:29.106Z,101093.50
2022-11-30T03:04:55.532Z,101086.81
2022-11-30T03:07:22.393Z,101095.41
2022-11-30T03:09:48.859Z,101099.59
2022-11-30T03:12:15.421Z,101098.97
2022-11-30T03:14:42.075Z,101099.09
2022-11-30T03:17:08.637Z,101092.03
2022-11-30T03:19:35.430Z,101093.50
2022-11-30T03:22:02.106Z,101095.25
2022-11-30T03:24:28.597Z,101094.22
2022-11-30T03:26:55.114Z,101091.91
2022-11-30T03:29:22.007Z,101100.66
2022-11-30T03:31:48.627Z,101097.28
2022-11-30T03:34:15.296Z,101096.59
2022-11-30T03:36:41.857Z,101104.88
2022-11-30T03:39:09.583Z,101106.16
2022-11-30T03:41:36.082Z,101111.03
2022-11-30T03:44:02.595Z,101108.81
2022-11-30T03:46:29.209Z,101109.91
2022-11-30T03:48:55.734Z,101108.31
2022-11-30T03:51:22.482Z,101109.09
2022-11-30T03:53:49.013Z,101115.00
2022-11-30T03:56:15.645Z,101116.47
2022-11-30T03:58:42.747Z,101112.53
2022-11-30T04:01:15.520Z,101117.41
2022-11-30T04:03:42.730Z,101116.47
2022-11-30T04:06:10.599Z,101111.06
2022-11-30T04:08:37.728Z,101123.16
2022-11-30T04:11:04.998Z,101120.31
2022-11-30T04:13:35.196Z,101117.59
2022-11-30T04:16:02.348Z,101128.19
2022-11-30T04:18:30.173Z,101125.25
2022-11-30T04:20:58.235Z,101121.13
2022-11-30T04:23:25.652Z,101116.91
2022-11-30T04:25:52.200Z,101125.66
2022-11-30T04:28:19.198Z,101123.84
2022-11-30T04:30:46.313Z,101122.28
2022-11-30T04:33:14.193Z,101124.16
2022-11-30T04:35:42.452Z,101130.44
2022-11-30T04:38:09.206Z,101124.16
2022-11-30T04:40:39.710Z,101130.72
2022-11-30T04:43:06.458Z,101123.03
2022-11-30T04:45:35.466Z,101127.38
2022-11-30T04:48:03.332Z,101125.75
2022-11-30T04:50:29.926Z,101133.63
2022-11-30T04:52:56.515Z,101132.56
2022-11-30T04:55:23.338Z,101137.31
2022-11-30T04:57:50.014Z,101135.91
2022-11-30T05:00:17.565Z,101141.19
2022-11-30T05:02:50.586Z,101139.00
2022-11-30T05:05:18.912Z,101147.38
2022-11-30T05:07:49.545Z,101150.06
2022-11-30T05:10:16.222Z,101148.31
2022-11-30T05:12:42.871Z,101152.03
2022-11-30T05:15:09.987Z,101146.97
2022-11-30T05:17:36.813Z,101146.94
2022-11-30T05:20:03.651Z,101138.38
2022-11-30T05:22:30.127Z,101140.22
2022-11-30T05:24:56.626Z,101142.94
2022-11-30T05:27:23.142Z,101144.72
2022-11-30T05:29:49.632Z,101142.91
2022-11-30T05:32:16.104Z,101142.22
2022-11-30T05:34:50.741Z,101141.44
2022-11-30T05:37:18.976Z,101151.06
2022-11-30T05:39:45.575Z,101151.81
2022-11-30T05:42:12.056Z,101153.97
2022-11-30T05:44:38.519Z,101159.22
2022-11-30T05:47:05.149Z,101159.25
2022-11-30T05:49:31.829Z,101166.09
2022-11-30T05:51:58.308Z,101166.97
2022-11-30T05:54:24.789Z,101166.25
2022-11-30T05:56:54.685Z,101167.06
2022-11-30T05:59:21.691Z,101163.72
2022-11-30T06:01:48.713Z,101167.59
2022-11-30T06:04:15.808Z,101171.16
2022-11-30T06:06:42.299Z,101170.53
2022-11-30T06:09:08.744Z,101176.56
2022-11-30T06:11:35.718Z,101173.13
2022-11-30T06:14:02.209Z,101175.00
2022-11-30T06:16:28.820Z,101174.91
2022-11-30T06:18:55.597Z,101169.91
2022-11-30T06:21:24.749Z,101181.00
2022-11-30T06:23:52.763Z,101173.84
2022-11-30T06:26:19.248Z,101171.94
2022-11-30T06:28:48.524Z,101176.81
2022-11-30T06:31:16.362Z,101177.03
2022-11-30T06:33:43.219Z,101175.44
2022-11-30T06:36:10.528Z,101186.00
2022-11-30T06:38:38.151Z,101182.09
2022-11-30T06:41:06.215Z,101188.66
2022-11-30T06:43:35.216Z,101191.41
2022-11-30T06:46:02.860Z,101195.03
2022-11-30T06:48:29.401Z,101193.31
2022-11-30T06:50:55.941Z,101198.47
2022-11-30T06:53:22.579Z,101198.34
2022-11-30T06:55:49.274Z,101194.03
2022-11-30T06:58:15.876Z,101198.47
2022-11-30T07:00:42.895Z,101198.56
2022-11-30T07:03:11.817Z,101209.94
2022-11-30T07:05:44.044Z,101201.91
2022-11-30T07:08:11.930Z,101207.94
2022-11-30T07:10:42.173Z,101212.44
2022-11-30T07:13:19.295Z,101206.19
2022-11-30T07:15:46.074Z,101211.63
2022-11-30T07:18:12.847Z,101217.09
2022-11-30T07:20:40.233Z,101214.69
2022-11-30T07:23:25.793Z,101211.25
2022-11-30T07:26:09.689Z,101210.31
2022-11-30T07:28:40.837Z,101211.81
2022-11-30T07:31:19.844Z,101208.13
2022-11-30T07:33:47.435Z,101213.63
2022-11-30T07:36:14.341Z,101210.84
2022-11-30T07:38:41.095Z,101219.72
2022-11-30T07:41:07.857Z,101225.75
2022-11-30T07:43:35.748Z,101224.09
2022-11-30T07:46:02.662Z,101221.84
2022-11-30T07:48:29.700Z,101217.75
2022-11-30T07:51:03.329Z,101228.38
2022-11-30T07:53:31.192Z,101221.34
2022-11-30T07:56:08.503Z,101221.81
2022-11-30T07:58:35.841Z,101223.78
2022-11-30T08:01:03.602Z,101224.50
2022-11-30T08:03:36.433Z,101220.38
2022-11-30T08:06:07.268Z,101218.06
2022-11-30T08:08:36.425Z,101216.91
2022-11-30T08:11:03.934Z,101221.31
2022-11-30T08:13:30.584Z,101214.22
2022-11-30T08:16:01.556Z,101217.03
2022-11-30T08:18:28.062Z,101214.59
2022-11-30T08:20:58.384Z,101223.47
2022-11-30T08:23:25.675Z,101220.09
2022-11-30T08:25:52.118Z,101220.78
2022-11-30T08:28:18.665Z,101219.25
2022-11-30T08:30:45.379Z,101225.16
2022-11-30T08:33:12.238Z,101222.72
2022-11-30T08:35:38.794Z,101229.44
2022-11-30T08:38:05.401Z,101223.41
2022-11-30T08:40:31.815Z,101221.31
2022-11-30T08:42:59.035Z,101227.38
2022-11-30T08:45:25.869Z,101228.41
2022-11-30T08:47:54.503Z,101231.66
2022-11-30T08:50:21.009Z,101231.16
2022-11-30T08:52:47.554Z,101232.75
2022-11-30T08:55:14.021Z,101235.38
2022-11-30T08:57:40.660Z,101234.34
2022-11-30T09:00:09.246Z,101232.25
2022-11-30T09:02:37.589Z,101225.81
2022-11-30T09:05:04.310Z,101224.34
2022-11-30T09:07:31.095Z,101224.34
2022-11-30T09:09:57.554Z,101234.94
2022-11-30T09:12:24.132Z,101234.72
2022-11-30T09:14:56.031Z,101234.72
2022-11-30T09:17:24.634Z,101231.56
2022-11-30T09:19:51.246Z,101233.06
2022-11-30T09:22:18.368Z,101243.34
2022-11-30T09:24:45.241Z,101235.06
2022-11-30T09:27:12.423Z,101236.44
2022-11-30T09:29:38.847Z,101240.66
2022-11-30T09:32:05.771Z,101241.16
2022-11-30T09:34:32.528Z,101232.47
2022-11-30T09:36:59.010Z,101242.69
2022-11-30T09:39:25.616Z,101231.41
2022-11-30T09:42:07.169Z,101230.84
2022-11-30T09:44:50.480Z,101239.28
2022-11-30T09:50:33.782Z,101236.38
2022-11-30T09:53:06.849Z,101238.47
2022-11-30T09:55:39.332Z,101241.31
2022-11-30T09:58:06.430Z,101240.97
2022-11-30T10:00:36.947Z,101234.09
2022-11-30T10:03:06.157Z,101226.28
2022-11-30T10:05:46.895Z,101234.75
2022-11-30T10:08:36.973Z,101232.63
2022-11-30T10:11:28.527Z,101240.69
2022-11-30T10:14:49.645Z,101237.00
2022-11-30T10:17:37.605Z,101230.66
2022-11-30T10:20:20.056Z,101234.47
2022-11-30T10:23:03.137Z,101229.69
2022-11-30T10:25:54.333Z,101232.31
2022-11-30T10:28:47.777Z,101233.94
2022-11-30T10:31:15.694Z,101240.66
2022-11-30T10:33:51.048Z,101231.06
2022-11-30T10:36:37.097Z,101227.09
2022-11-30T10:39:14.248Z,101231.53
2022-11-30T10:41:48.008Z,101229.56
2022-11-30T10:44:26.005Z,101222.63
2022-11-30T10:46:59.714Z,101227.88
2022-11-30T10:49:29.119Z,101222.47
2022-11-30T10:52:01.107Z,101217.63
2022-11-30T10:54:30.202Z,101219.91
2022-11-30T10:56:58.947Z,101219.59
2022-11-30T10:59:31.086Z,101223.22
2022-11-30T11:01:57.603Z,101219.34
2022-11-30T11:04:27.913Z,101219.09
2022-11-30T11:06:57.437Z,101225.13
2022-11-30T11:09:27.423Z,101213.41
2022-11-30T11:12:05.904Z,101216.91
2022-11-30T11:14:37.758Z,101217.28
2022-11-30T11:17:23.683Z,101222.47
2022-11-30T11:19:50.905Z,101226.06
2022-11-30T11:22:25.190Z,101225.94
2022-11-30T11:24:54.454Z,101223.88
2022-11-30T11:27:24.680Z,101222.22
2022-11-30T11:30:06.123Z,101223.97
2022-11-30T11:32:32.760Z,101226.72
2022-11-30T11:34:59.633Z,101222.66
2022-11-30T11:37:31.688Z,101225.31
2022-11-30T11:40:16.858Z,101223.31
2022-11-30T11:42:53.800Z,101216.66
2022-11-30T11:45:22.533Z,101213.88
2022-11-30T11:48:02.004Z,101211.69
2022-11-30T11:51:06.257Z,101214.00
2022-11-30T11:53:46.283Z,101214.91
2022-11-30T11:56:24.786Z,101220.06
2022-11-30T11:58:56.949Z,101216.38
2022-11-30T12:01:56.382Z,101215.94
2022-11-30T12:04:34.313Z,101212.16
2022-11-30T12:07:02.919Z,101216.38
2022-11-30T12:09:35.731Z,101225.09
2022-11-30T12:12:02.725Z,101220.56
2022-11-30T12:14:30.444Z,101224.09
2022-11-30T12:17:06.397Z,101226.19
2022-11-30T12:20:00.774Z,101225.25
2022-11-30T12:22:42.652Z,101220.56
2022-11-30T12:25:23.348Z,101216.06
2022-11-30T12:28:11.475Z,101218.16
2022-11-30T12:31:17.839Z,101219.63
2022-11-30T12:33:44.301Z,101217.22
2022-11-30T12:36:20.107Z,101216.88
2022-11-30T12:38:46.545Z,101223.09
2022-11-30T12:41:23.050Z,101220.47
2022-11-30T12:44:10.998Z,101218.84
2022-11-30T12:46:55.249Z,101225.56
2022-11-30T12:49:26.787Z,101229.97
2022-11-30T12:52:03.863Z,101225.34
2022-11-30T12:54:40.333Z,101216.91
2022-11-30T12:57:12.978Z,101230.13
2022-11-30T12:59:48.141Z,101230.63
2022-11-30T13:02:14.731Z,101222.28
2022-11-30T13:04:45.968Z,101223.97
2022-11-30T13:07:49.684Z,101228.97
2022-11-30T13:10:22.549Z,101221.06
2022-11-30T13:12:51.371Z,101223.38
2022-11-30T13:15:20.799Z,101225.75
2022-11-30T13:17:47.873Z,101227.28
2022-11-30T13:20:39.865Z,101215.16
2022-11-30T13:23:15.022Z,101219.19
2022-11-30T13:26:08.968Z,101226.72
2022-11-30T13:28:41.734Z,101216.84
2022-11-30T13:31:14.611Z,101222.50
2022-11-30T13:33:53.293Z,101222.28
2022-11-30T13:36:22.818Z,101224.34
2022-11-30T13:39:09.725Z,101228.97
2022-11-30T13:41:37.251Z,101220.34
2022-11-30T13:44:04.187Z,101222.28
2022-11-30T13:46:31.229Z,101221.19
2022-11-30T13:49:19.857Z,101225.81
2022-11-30T13:51:50.235Z,101231.41
2022-11-30T13:54:38.901Z,101225.88
2022-11-30T13:57:30.202Z,101231.84
2022-11-30T14:00:01.893Z,101234.44
2022-11-30T14:02:42.060Z,101235.50
2022-11-30T14:05:22.588Z,101232.13
2022-11-30T14:07:51.991Z,101235.91
2022-11-30T14:10:39.217Z,101231.19
2022-11-30T14:13:29.822Z,101230.84
2022-11-30T14:16:00.804Z,101224.50
2022-11-30T14:18:30.068Z,101231.59
2022-11-30T14:21:32.166Z,101225.34
2022-11-30T14:24:06.523Z,101223.50
2022-11-30T14:26:39.577Z,101228.97
2022-11-30T14:29:16.888Z,101238.13
2022-11-30T14:31:58.644Z,101235.19
2022-11-30T14:34:28.738Z,101232.53
2022-11-30T14:37:22.244Z,101235.38
2022-11-30T14:39:49.781Z,101238.00
2022-11-30T14:42:35.510Z,101234.22
2022-11-30T14:45:02.012Z,101241.84
2022-11-30T14:47:31.440Z,101238.63
2022-11-30T14:50:02.087Z,101239.28
2022-11-30T14:52:52.526Z,101244.47
2022-11-30T14:55:27.827Z,101244.75
2022-11-30T14:58:16.225Z,101239.19
2022-11-30T15:00:44.736Z,101246.72
2022-11-30T15:03:25.309Z,101242.19
2022-11-30T15:05:57.707Z,101237.75
2022-11-30T15:08:33.314Z,101240.41
2022-11-30T15:11:10.123Z,101243.78
2022-11-30T15:13:41.634Z,101237.00
2022-11-30T15:16:51.110Z,101234.66
2022-11-30T15:19:26.661Z,101238.88
2022-11-30T15:21:54.692Z,101240.41
2022-11-30T15:24:22.044Z,101239.34
2022-11-30T15:27:21.972Z,101235.44
2022-11-30T15:29:58.821Z,101244.56
2022-11-30T15:32:25.754Z,101247.19
2022-11-30T15:34:57.737Z,101245.28
2022-11-30T15:37:31.700Z,101249.69
2022-11-30T15:40:00.914Z,101251.50
2022-11-30T15:42:39.878Z,101250.78
2022-11-30T15:45:26.683Z,101263.19
2022-11-30T15:47:54.880Z,101256.41
2022-11-30T15:50:30.618Z,101253.78
2022-11-30T15:53:03.021Z,101247.47
2022-11-30T15:55:51.249Z,101253.88
2022-11-30T15:58:39.500Z,101248.09
2022-11-30T16:01:09.769Z,101247.34
2022-11-30T16:03:56.534Z,101253.41
2022-11-30T16:06:25.176Z,101252.19
2022-11-30T16:08:52.055Z,101247.13
2022-11-30T16:11:19.826Z,101253.69
2022-11-30T16:13:47.432Z,101258.13
2022-11-30T16:16:21.691Z,101258.09
2022-11-30T16:18:48.547Z,101251.81
2022-11-30T16:21:17.288Z,101255.16
2022-11-30T16:23:44.341Z,101256.19
2022-11-30T16:26:43.132Z,101257.66
2022-11-30T16:29:04.562Z,101255.53
2022-11-30T16:31:31.303Z,101253.22
2022-11-30T16:33:57.887Z,101258.69
2022-11-30T16:36:24.702Z,101252.13
2022-11-30T16:38:52.236Z,101253.69
2022-11-30T16:41:19.813Z,101258.44
2022-11-30T16:43:47.974Z,101259.81
2022-11-30T16:46:17.290Z,101260.53
2022-11-30T16:48:43.869Z,101264.44
2022-11-30T16:51:22.960Z,101266.75
2022-11-30T16:53:49.511Z,101266.97
2022-11-30T16:56:16.567Z,101271.38
2022-11-30T16:58:44.408Z,101274.16
2022-11-30T17:01:37.637Z,101273.13
2022-11-30T17:04:11.498Z,101273.09
2022-11-30T17:06:37.980Z,101282.47
2022-11-30T17:09:04.626Z,101276.06
2022-11-30T17:11:36.400Z,101276.19
2022-11-30T17:14:03.501Z,101280.50
2022-11-30T17:16:30.521Z,101278.91
2022-11-30T17:18:57.026Z,101274.66
2022-11-30T17:21:26.998Z,101278.50
2022-11-30T17:23:53.826Z,101287.94
2022-11-30T17:26:20.890Z,101284.28
2022-11-30T17:28:47.521Z,101280.75
2022-11-30T17:31:14.601Z,101290.19
2022-11-30T17:33:47.788Z,101285.06
2022-11-30T17:36:16.565Z,101289.50
2022-11-30T17:38:44.267Z,101287.81
2022-11-30T17:41:19.100Z,101286.59
2022-11-30T17:43:47.093Z,101294.56
2022-11-30T17:46:18.364Z,101293.06
2022-11-30T17:48:45.496Z,101285.47
2022-11-30T17:51:13.285Z,101289.75
2022-11-30T17:53:41.331Z,101287.94
2022-11-30T17:56:16.087Z,101290.53
2022-11-30T17:58:44.812Z,101292.50
2022-11-30T18:01:21.155Z,101291.59
2022-11-30T18:03:48.951Z,101297.81
2022-11-30T18:06:16.047Z,101298.31
2022-11-30T18:08:42.803Z,101298.84
2022-11-30T18:11:20.656Z,101299.19
2022-11-30T18:13:51.835Z,101305.22
2022-11-30T18:16:21.582Z,101298.16
2022-11-30T18:18:48.963Z,101303.53
2022-11-30T18:21:18.155Z,101307.97
2022-11-30T18:23:44.726Z,101296.72
2022-11-30T18:26:14.000Z,101309.00
2022-11-30T18:28:41.157Z,101309.00
2022-11-30T18:31:07.859Z,101305.34
2022-11-30T18:33:38.308Z,101308.53
2022-11-30T18:36:08.958Z,101310.34
2022-11-30T18:38:38.548Z,101318.91
2022-11-30T18:41:05.501Z,101312.59
2022-11-30T18:43:34.093Z,101313.41
2022-11-30T18:46:04.981Z,101306.81
2022-11-30T18:48:31.766Z,101306.81
2022-11-30T18:50:58.333Z,101305.34
2022-11-30T18:53:24.916Z,101311.22
2022-11-30T18:55:51.807Z,101309.56
2022-11-30T18:58:18.463Z,101307.84
2022-11-30T19:00:45.004Z,101297.69
2022-11-30T19:03:11.870Z,101302.91
2022-11-30T19:05:40.569Z,101303.53
2022-11-30T19:08:09.072Z,101300.03
2022-11-30T19:10:38.053Z,101306.34
2022-11-30T19:13:05.800Z,101302.19
2022-11-30T19:15:39.832Z,101309.97
2022-11-30T19:18:07.640Z,101305.13
2022-11-30T19:20:41.410Z,101316.09
2022-11-30T19:23:08.655Z,101308.59
2022-11-30T19:25:38.760Z,101319.50
2022-11-30T19:28:05.902Z,101320.47
2022-11-30T19:30:32.579Z,101317.69
2022-11-30T19:32:59.107Z,101317.69
2022-11-30T19:35:25.849Z,101317.19
2022-11-30T19:37:52.664Z,101320.59
2022-11-30T19:40:19.297Z,101322.06
2022-11-30T19:42:45.788Z,101322.47
2022-11-30T19:45:12.363Z,101317.31
2022-11-30T19:47:38.844Z,101324.28
2022-11-30T19:50:05.763Z,101323.81
2022-11-30T19:52:32.218Z,101328.03
2022-11-30T19:54:58.650Z,101334.00
2022-11-30T19:57:25.076Z,101332.75
2022-11-30T19:59:51.586Z,101329.84
2022-11-30T20:02:18.120Z,101341.88
2022-11-30T20:04:44.783Z,101331.31
2022-11-30T20:07:11.227Z,101334.06
2022-11-30T20:09:38.148Z,101335.56
2022-11-30T20:12:04.936Z,101338.50
2022-11-30T20:14:31.367Z,101334.00
2022-11-30T20:16:57.882Z,101339.06
2022-11-30T20:19:24.338Z,101338.00
2022-11-30T20:21:51.177Z,101345.44
2022-11-30T20:24:17.685Z,101340.09
2022-11-30T20:26:44.604Z,101345.41
2022-11-30T20:29:14.707Z,101343.25
2022-11-30T20:31:42.094Z,101339.84
2022-11-30T20:34:09.036Z,101335.38
2022-11-30T20:36:36.040Z,101338.84
2022-11-30T20:39:03.049Z,101343.09
2022-11-30T20:41:29.682Z,101337.13
2022-11-30T20:43:56.738Z,101336.47
2022-11-30T20:46:31.728Z,101337.78
2022-11-30T20:48:58.903Z,101346.16
2022-11-30T20:51:35.888Z,101343.34
2022-11-30T20:54:07.059Z,101347.59
2022-11-30T20:56:36.513Z,101344.59
2022-11-30T20:59:05.830Z,101346.16
2022-11-30T21:01:32.648Z,101343.53
2022-11-30T21:04:02.090Z,101350.38
2022-11-30T21:06:31.305Z,101347.88
2022-11-30T21:08:58.489Z,101344.88
2022-11-30T21:11:25.615Z,101346.28
2022-11-30T21:13:52.308Z,101350.91
2022-11-30T21:16:26.870Z,101349.09
2022-11-30T21:18:54.609Z,101341.78
2022-11-30T21:21:23.319Z,101350.13
2022-11-30T21:23:50.218Z,101348.13
2022-11-30T21:26:25.069Z,101350.63
2022-11-30T21:28:53.716Z,101349.84
2022-11-30T21:31:21.645Z,101345.81
2022-11-30T21:33:52.673Z,101341.19
2022-11-30T21:36:20.560Z,101339.59
2022-11-30T21:38:47.030Z,101346.81
2022-11-30T21:41:14.329Z,101344.38
2022-11-30T21:43:41.475Z,101340.81
2022-11-30T21:46:13.800Z,101345.34
2022-11-30T21:48:42.095Z,101343.81
2022-11-30T21:51:10.652Z,101343.63
2022-11-30T21:53:39.363Z,101337.03
2022-11-30T21:56:07.567Z,101339.91
2022-11-30T21:58:35.251Z,101349.59
2022-11-30T22:01:02.461Z,101345.94
2022-11-30T22:03:29.333Z,101347.84
2022-11-30T22:06:03.754Z,101344.41
2022-11-30T22:08:31.108Z,101346.00
2022-11-30T22:11:01.814Z,101346.00
2022-11-30T22:13:29.602Z,101340.91
2022-11-30T22:16:04.709Z,101341.88
2022-11-30T22:18:31.593Z,101341.69
2022-11-30T22:21:06.641Z,101337.91
2022-11-30T22:23:35.188Z,101337.03
2022-11-30T22:26:20.867Z,101336.19
2022-11-30T22:28:49.356Z,101337.09
2022-11-30T22:31:17.625Z,101334.59
2022-11-30T22:33:45.214Z,101343.63
2022-11-30T22:36:17.320Z,101339.97
2022-11-30T22:38:43.823Z,101341.00
2022-11-30T22:41:15.189Z,101342.41
2022-11-30T22:43:46.241Z,101336.72
2022-11-30T22:46:18.887Z,101335.63
2022-11-30T22:48:46.256Z,101344.97
2022-11-30T22:51:20.388Z,101339.28
2022-11-30T22:53:47.941Z,101340.88
2022-11-30T22:56:22.509Z,101334.81
2022-11-30T22:58:50.326Z,101342.53
2022-11-30T23:01:19.248Z,101339.72
2022-11-30T23:03:47.067Z,101342.53
2022-11-30T23:06:15.725Z,101337.41
2022-11-30T23:08:42.645Z,101328.44
2022-11-30T23:11:12.014Z,101332.28
2022-11-30T23:13:39.726Z,101337.78
2022-11-30T23:16:06.921Z,101325.53
2022-11-30T23:18:39.331Z,101323.16
2022-11-30T23:21:09.337Z,101323.28
2022-11-30T23:23:35.747Z,101325.59
2022-11-30T23:26:13.707Z,101328.97
2022-11-30T23:28:41.379Z,101315.28
2022-11-30T23:31:33.788Z,101317.69
2022-11-30T23:33:59.439Z,101319.56
2022-11-30T23:36:25.928Z,101317.19
2022-11-30T23:39:04.599Z,101313.41
2022-11-30T23:41:31.159Z,101314.75
2022-11-30T23:43:57.799Z,101315.28
2022-11-30T23:46:24.390Z,101319.63
2022-11-30T23:48:51.196Z,101322.78
2022-11-30T23:51:18.021Z,101313.69
2022-11-30T23:53:44.687Z,101318.75
2022-11-30T23:56:14.204Z,101312.91
2022-11-30T23:58:40.733Z,101315.59
